Enter the Airport ICAO Code

Search by Airport or City

Current Weather

LEVC | Valencia Airport

Valencia, Valencian Community, Spain

Last Update 19 Minutes Ago

Mostly Cloudy Sky

Temperature of 08 ēC

Light Winds from Variable Directions

Temperature

08 ēC

Dew Point Temperature

06 ēC

Relative Humidity

87.22 %

Wind Direction

Variable

Wind Velocity

4 km/h (02 kt)

Gusts

None

Visibility

Greater than 10 Kilometers

Sea Level Pressure

1010 hPa (Hectopascals)

Layers of Clouds

60% to 90% of Sky Covered from 457 mts (1500 ft) Above Ground Level.

METAR LEVC 160700Z VRB02KT 9999 BKN015 08/06 Q1010 NOSIG

Weather Forecast

LEVC | Valencia Airport

Valencia, Valencian Community, Spain

Forecast valid for the next 23 Hours

From now on it is expected:

Sky with Few Clouds

Light Winds from Variable Directions

From now on it is expected 3 hours with intermittent periods of:

Mostly Cloudy Sky

In 4 to 6 hours it is expected the begining of:

Light to Moderate Winds from NorthEast

In 11 to 13 hours it is expected the begining of:

Light Winds from Variable Directions

Maximum Temperature

16 ēC in 6 Hours

Minimum Temperature

07 ēC in -1 Hours

TAF LEVC 160658Z 1606/1706 VRB04KT 9999 FEW040 TX16/1613Z TN07/1606Z TEMPO 1607/1610 BKN014 BECMG 1611/1613 06008KT BECMG 1618/1620 VRB03KT